sensor_id;sensor_type;location;lat;lon;timestamp;P1;durP1;ratioP1;P2;durP2;ratioP2
3211;SDS011;1618;47.056;15.472;2023-07-16T00:01:19;24.27;;;22.87;;
3211;SDS011;1618;47.056;15.472;2023-07-16T00:03:47;23.77;;;22.37;;
3211;SDS011;1618;47.056;15.472;2023-07-16T00:06:15;23.30;;;22.00;;
3211;SDS011;1618;47.056;15.472;2023-07-16T00:08:43;23.67;;;22.37;;
3211;SDS011;1618;47.056;15.472;2023-07-16T00:11:10;23.30;;;22.00;;
3211;SDS011;1618;47.056;15.472;2023-07-16T00:13:37;23.47;;;22.17;;
3211;SDS011;1618;47.056;15.472;2023-07-16T00:16:06;23.70;;;22.40;;
3211;SDS011;1618;47.056;15.472;2023-07-16T00:18:33;23.00;;;21.80;;
3211;SDS011;1618;47.056;15.472;2023-07-16T00:21:01;23.30;;;22.00;;
3211;SDS011;1618;47.056;15.472;2023-07-16T00:23:29;23.03;;;21.73;;
3211;SDS011;1618;47.056;15.472;2023-07-16T00:25:56;22.90;;;21.60;;
3211;SDS011;1618;47.056;15.472;2023-07-16T00:28:25;23.47;;;22.17;;
3211;SDS011;1618;47.056;15.472;2023-07-16T00:30:52;23.30;;;22.00;;
3211;SDS011;1618;47.056;15.472;2023-07-16T00:33:20;22.60;;;21.40;;
3211;SDS011;1618;47.056;15.472;2023-07-16T00:35:47;22.50;;;21.30;;
3211;SDS011;1618;47.056;15.472;2023-07-16T00:38:16;21.90;;;20.70;;
3211;SDS011;1618;47.056;15.472;2023-07-16T00:40:45;22.40;;;21.20;;
3211;SDS011;1618;47.056;15.472;2023-07-16T00:43:12;22.60;;;21.40;;
3211;SDS011;1618;47.056;15.472;2023-07-16T00:45:40;23.40;;;22.10;;
3211;SDS011;1618;47.056;15.472;2023-07-16T00:48:08;22.53;;;21.33;;
3211;SDS011;1618;47.056;15.472;2023-07-16T00:50:36;22.07;;;20.87;;
3211;SDS011;1618;47.056;15.472;2023-07-16T00:53:04;22.00;;;20.80;;
3211;SDS011;1618;47.056;15.472;2023-07-16T00:55:33;22.03;;;20.83;;
3211;SDS011;1618;47.056;15.472;2023-07-16T00:58:03;22.20;;;21.00;;
3211;SDS011;1618;47.056;15.472;2023-07-16T01:00:31;21.90;;;20.70;;
3211;SDS011;1618;47.056;15.472;2023-07-16T01:02:58;20.80;;;19.70;;
3211;SDS011;1618;47.056;15.472;2023-07-16T01:05:26;21.43;;;20.33;;
3211;SDS011;1618;47.056;15.472;2023-07-16T01:07:57;20.63;;;19.53;;
3211;SDS011;1618;47.056;15.472;2023-07-16T01:10:25;20.10;;;19.10;;
3211;SDS011;1618;47.056;15.472;2023-07-16T01:12:53;20.53;;;19.43;;
3211;SDS011;1618;47.056;15.472;2023-07-16T01:15:23;20.50;;;19.40;;
3211;SDS011;1618;47.056;15.472;2023-07-16T01:17:50;20.53;;;19.43;;
3211;SDS011;1618;47.056;15.472;2023-07-16T01:20:17;20.50;;;19.40;;
3211;SDS011;1618;47.056;15.472;2023-07-16T01:22:48;20.50;;;19.40;;
3211;SDS011;1618;47.056;15.472;2023-07-16T01:25:28;20.90;;;19.80;;
3211;SDS011;1618;47.056;15.472;2023-07-16T01:28:13;21.60;;;20.40;;
3211;SDS011;1618;47.056;15.472;2023-07-16T01:30:45;21.10;;;20.00;;
3211;SDS011;1618;47.056;15.472;2023-07-16T01:33:13;20.53;;;19.43;;
3211;SDS011;1618;47.056;15.472;2023-07-16T01:35:41;20.70;;;19.60;;
3211;SDS011;1618;47.056;15.472;2023-07-16T01:38:09;21.30;;;20.20;;
3211;SDS011;1618;47.056;15.472;2023-07-16T01:40:37;21.10;;;20.00;;
3211;SDS011;1618;47.056;15.472;2023-07-16T01:43:05;21.17;;;20.07;;
3211;SDS011;1618;47.056;15.472;2023-07-16T01:45:32;20.67;;;19.57;;
3211;SDS011;1618;47.056;15.472;2023-07-16T01:48:05;21.10;;;20.00;;
3211;SDS011;1618;47.056;15.472;2023-07-16T01:50:36;21.87;;;20.77;;
3211;SDS011;1618;47.056;15.472;2023-07-16T01:53:03;21.60;;;20.50;;
3211;SDS011;1618;47.056;15.472;2023-07-16T01:55:31;21.73;;;20.63;;
3211;SDS011;1618;47.056;15.472;2023-07-16T01:57:58;21.70;;;20.60;;
3211;SDS011;1618;47.056;15.472;2023-07-16T02:00:26;20.80;;;19.70;;
3211;SDS011;1618;47.056;15.472;2023-07-16T02:02:53;21.37;;;20.27;;
3211;SDS011;1618;47.056;15.472;2023-07-16T02:05:22;20.80;;;19.70;;
3211;SDS011;1618;47.056;15.472;2023-07-16T02:07:49;20.93;;;19.83;;
3211;SDS011;1618;47.056;15.472;2023-07-16T02:10:16;21.30;;;20.20;;
3211;SDS011;1618;47.056;15.472;2023-07-16T02:12:43;21.00;;;19.90;;
3211;SDS011;1618;47.056;15.472;2023-07-16T02:15:11;20.80;;;19.70;;
3211;SDS011;1618;47.056;15.472;2023-07-16T02:17:38;21.10;;;20.00;;
3211;SDS011;1618;47.056;15.472;2023-07-16T02:20:05;20.43;;;19.43;;
3211;SDS011;1618;47.056;15.472;2023-07-16T02:22:35;20.77;;;19.67;;
3211;SDS011;1618;47.056;15.472;2023-07-16T02:25:02;20.43;;;19.43;;
3211;SDS011;1618;47.056;15.472;2023-07-16T02:27:29;20.70;;;19.70;;
3211;SDS011;1618;47.056;15.472;2023-07-16T02:29:57;20.00;;;19.00;;
3211;SDS011;1618;47.056;15.472;2023-07-16T02:32:24;19.90;;;18.90;;
3211;SDS011;1618;47.056;15.472;2023-07-16T02:34:52;20.30;;;19.30;;
3211;SDS011;1618;47.056;15.472;2023-07-16T02:37:19;20.13;;;19.13;;
3211;SDS011;1618;47.056;15.472;2023-07-16T02:39:48;19.70;;;18.70;;
3211;SDS011;1618;47.056;15.472;2023-07-16T02:42:15;19.70;;;18.70;;
3211;SDS011;1618;47.056;15.472;2023-07-16T02:44:42;19.13;;;18.23;;
3211;SDS011;1618;47.056;15.472;2023-07-16T02:47:10;19.70;;;18.70;;
3211;SDS011;1618;47.056;15.472;2023-07-16T02:49:37;19.40;;;18.40;;
3211;SDS011;1618;47.056;15.472;2023-07-16T02:52:05;18.50;;;17.60;;
3211;SDS011;1618;47.056;15.472;2023-07-16T02:54:32;18.47;;;17.57;;
3211;SDS011;1618;47.056;15.472;2023-07-16T02:57:01;18.57;;;17.67;;
3211;SDS011;1618;47.056;15.472;2023-07-16T02:59:28;21.00;;;19.90;;
3211;SDS011;1618;47.056;15.472;2023-07-16T03:01:55;21.40;;;20.30;;
3211;SDS011;1618;47.056;15.472;2023-07-16T03:04:22;20.40;;;19.30;;
3211;SDS011;1618;47.056;15.472;2023-07-16T03:06:50;20.80;;;19.70;;
3211;SDS011;1618;47.056;15.472;2023-07-16T03:09:17;20.37;;;19.37;;
3211;SDS011;1618;47.056;15.472;2023-07-16T03:11:44;20.10;;;19.10;;
3211;SDS011;1618;47.056;15.472;2023-07-16T03:14:13;20.23;;;19.23;;
3211;SDS011;1618;47.056;15.472;2023-07-16T03:16:40;20.00;;;19.00;;
3211;SDS011;1618;47.056;15.472;2023-07-16T03:19:08;20.10;;;19.10;;
3211;SDS011;1618;47.056;15.472;2023-07-16T03:21:35;19.80;;;18.80;;
3211;SDS011;1618;47.056;15.472;2023-07-16T03:24:02;19.70;;;18.70;;
3211;SDS011;1618;47.056;15.472;2023-07-16T03:26:29;20.00;;;19.00;;
3211;SDS011;1618;47.056;15.472;2023-07-16T03:28:57;20.03;;;19.03;;
3211;SDS011;1618;47.056;15.472;2023-07-16T03:31:25;19.50;;;18.50;;
3211;SDS011;1618;47.056;15.472;2023-07-16T03:33:54;20.17;;;19.17;;
3211;SDS011;1618;47.056;15.472;2023-07-16T03:36:21;19.47;;;18.47;;
3211;SDS011;1618;47.056;15.472;2023-07-16T03:38:48;19.00;;;18.10;;
3211;SDS011;1618;47.056;15.472;2023-07-16T03:41:15;18.80;;;17.90;;
3211;SDS011;1618;47.056;15.472;2023-07-16T03:43:43;18.80;;;17.90;;
3211;SDS011;1618;47.056;15.472;2023-07-16T03:46:10;18.10;;;17.20;;
3211;SDS011;1618;47.056;15.472;2023-07-16T03:48:38;17.57;;;16.67;;
3211;SDS011;1618;47.056;15.472;2023-07-16T03:51:06;17.63;;;16.73;;
3211;SDS011;1618;47.056;15.472;2023-07-16T03:53:33;18.30;;;17.40;;
3211;SDS011;1618;47.056;15.472;2023-07-16T03:56:04;18.60;;;17.70;;
3211;SDS011;1618;47.056;15.472;2023-07-16T03:58:32;18.10;;;17.20;;
3211;SDS011;1618;47.056;15.472;2023-07-16T04:00:59;18.20;;;17.30;;
3211;SDS011;1618;47.056;15.472;2023-07-16T04:03:26;17.93;;;17.03;;
3211;SDS011;1618;47.056;15.472;2023-07-16T04:06:01;18.20;;;17.30;;
3211;SDS011;1618;47.056;15.472;2023-07-16T04:08:29;18.60;;;17.70;;
3211;SDS011;1618;47.056;15.472;2023-07-16T04:10:56;18.10;;;17.20;;
3211;SDS011;1618;47.056;15.472;2023-07-16T04:13:23;18.10;;;17.20;;
3211;SDS011;1618;47.056;15.472;2023-07-16T04:15:51;18.20;;;17.30;;
3211;SDS011;1618;47.056;15.472;2023-07-16T04:18:21;18.00;;;17.10;;
3211;SDS011;1618;47.056;15.472;2023-07-16T04:20:48;18.00;;;17.10;;
3211;SDS011;1618;47.056;15.472;2023-07-16T04:23:16;17.40;;;16.60;;
3211;SDS011;1618;47.056;15.472;2023-07-16T04:25:44;17.27;;;16.47;;
3211;SDS011;1618;47.056;15.472;2023-07-16T04:28:11;17.40;;;16.50;;
3211;SDS011;1618;47.056;15.472;2023-07-16T04:30:38;16.97;;;16.17;;
3211;SDS011;1618;47.056;15.472;2023-07-16T04:33:06;16.80;;;16.00;;
3211;SDS011;1618;47.056;15.472;2023-07-16T04:35:33;17.40;;;16.60;;
3211;SDS011;1618;47.056;15.472;2023-07-16T04:38:00;17.20;;;16.40;;
3211;SDS011;1618;47.056;15.472;2023-07-16T04:40:29;17.50;;;16.70;;
3211;SDS011;1618;47.056;15.472;2023-07-16T04:42:58;17.63;;;16.73;;
3211;SDS011;1618;47.056;15.472;2023-07-16T04:45:25;18.30;;;17.40;;
3211;SDS011;1618;47.056;15.472;2023-07-16T04:47:52;18.60;;;17.70;;
3211;SDS011;1618;47.056;15.472;2023-07-16T04:50:20;18.80;;;17.90;;
3211;SDS011;1618;47.056;15.472;2023-07-16T04:52:47;19.20;;;18.20;;
3211;SDS011;1618;47.056;15.472;2023-07-16T04:55:14;18.87;;;17.90;;
3211;SDS011;1618;47.056;15.472;2023-07-16T04:57:43;19.47;;;18.47;;
3211;SDS011;1618;47.056;15.472;2023-07-16T05:00:10;19.10;;;18.10;;
3211;SDS011;1618;47.056;15.472;2023-07-16T05:02:38;19.20;;;18.20;;
3211;SDS011;1618;47.056;15.472;2023-07-16T05:05:05;19.77;;;18.77;;
3211;SDS011;1618;47.056;15.472;2023-07-16T05:07:33;19.90;;;18.90;;
3211;SDS011;1618;47.056;15.472;2023-07-16T05:10:01;21.17;;;20.07;;
3211;SDS011;1618;47.056;15.472;2023-07-16T05:12:28;20.80;;;19.70;;
3211;SDS011;1618;47.056;15.472;2023-07-16T05:14:57;21.00;;;19.90;;
3211;SDS011;1618;47.056;15.472;2023-07-16T05:17:24;18.47;;;17.47;;
3211;SDS011;1618;47.056;15.472;2023-07-16T05:19:51;18.30;;;17.30;;
3211;SDS011;1618;47.056;15.472;2023-07-16T05:22:19;19.23;;;18.23;;
3211;SDS011;1618;47.056;15.472;2023-07-16T05:24:46;21.83;;;20.63;;
3211;SDS011;1618;47.056;15.472;2023-07-16T05:27:14;21.80;;;20.60;;
3211;SDS011;1618;47.056;15.472;2023-07-16T05:29:41;21.70;;;20.50;;
3211;SDS011;1618;47.056;15.472;2023-07-16T05:32:10;22.80;;;21.53;;
3211;SDS011;1618;47.056;15.472;2023-07-16T05:34:37;21.60;;;20.40;;
3211;SDS011;1618;47.056;15.472;2023-07-16T05:37:04;22.50;;;21.20;;
3211;SDS011;1618;47.056;15.472;2023-07-16T05:39:32;22.77;;;21.47;;
3211;SDS011;1618;47.056;15.472;2023-07-16T05:41:59;22.67;;;21.30;;
3211;SDS011;1618;47.056;15.472;2023-07-16T05:44:27;21.80;;;20.50;;
3211;SDS011;1618;47.056;15.472;2023-07-16T05:46:54;21.90;;;20.70;;
3211;SDS011;1618;47.056;15.472;2023-07-16T05:49:23;21.40;;;20.20;;
3211;SDS011;1618;47.056;15.472;2023-07-16T05:51:51;22.80;;;21.60;;
3211;SDS011;1618;47.056;15.472;2023-07-16T05:54:19;22.70;;;21.40;;
3211;SDS011;1618;47.056;15.472;2023-07-16T05:56:46;23.00;;;21.70;;
3211;SDS011;1618;47.056;15.472;2023-07-16T05:59:14;23.10;;;21.80;;
3211;SDS011;1618;47.056;15.472;2023-07-16T06:01:41;24.00;;;22.60;;
3211;SDS011;1618;47.056;15.472;2023-07-16T06:04:08;23.60;;;22.20;;
3211;SDS011;1618;47.056;15.472;2023-07-16T06:06:37;24.80;;;23.30;;
3211;SDS011;1618;47.056;15.472;2023-07-16T06:09:04;24.50;;;23.00;;
3211;SDS011;1618;47.056;15.472;2023-07-16T06:11:31;24.60;;;23.10;;
3211;SDS011;1618;47.056;15.472;2023-07-16T06:13:58;25.07;;;23.47;;
3211;SDS011;1618;47.056;15.472;2023-07-16T06:16:26;23.70;;;22.20;;
3211;SDS011;1618;47.056;15.472;2023-07-16T06:18:53;24.10;;;22.60;;
3211;SDS011;1618;47.056;15.472;2023-07-16T06:21:20;24.10;;;22.60;;
3211;SDS011;1618;47.056;15.472;2023-07-16T06:23:49;24.77;;;23.17;;
3211;SDS011;1618;47.056;15.472;2023-07-16T06:26:16;24.13;;;22.63;;
3211;SDS011;1618;47.056;15.472;2023-07-16T06:28:43;24.60;;;23.10;;
3211;SDS011;1618;47.056;15.472;2023-07-16T06:31:15;25.10;;;23.60;;
3211;SDS011;1618;47.056;15.472;2023-07-16T06:33:42;25.93;;;24.33;;
3211;SDS011;1618;47.056;15.472;2023-07-16T06:36:11;23.87;;;22.37;;
3211;SDS011;1618;47.056;15.472;2023-07-16T06:38:39;25.67;;;24.17;;
3211;SDS011;1618;47.056;15.472;2023-07-16T06:41:07;24.73;;;23.23;;
3211;SDS011;1618;47.056;15.472;2023-07-16T06:43:34;24.97;;;23.47;;
3211;SDS011;1618;47.056;15.472;2023-07-16T06:46:02;24.20;;;22.70;;
3211;SDS011;1618;47.056;15.472;2023-07-16T06:48:29;25.20;;;23.60;;
3211;SDS011;1618;47.056;15.472;2023-07-16T06:50:56;24.90;;;23.30;;
3211;SDS011;1618;47.056;15.472;2023-07-16T06:53:24;25.30;;;23.70;;
3211;SDS011;1618;47.056;15.472;2023-07-16T06:55:52;24.80;;;23.20;;
3211;SDS011;1618;47.056;15.472;2023-07-16T06:58:23;24.17;;;22.67;;
3211;SDS011;1618;47.056;15.472;2023-07-16T07:00:57;23.90;;;22.40;;
3211;SDS011;1618;47.056;15.472;2023-07-16T07:03:24;24.30;;;22.70;;
3211;SDS011;1618;47.056;15.472;2023-07-16T07:05:52;25.60;;;23.90;;
3211;SDS011;1618;47.056;15.472;2023-07-16T07:08:19;25.53;;;23.83;;
3211;SDS011;1618;47.056;15.472;2023-07-16T07:10:46;25.10;;;23.40;;
3211;SDS011;1618;47.056;15.472;2023-07-16T07:13:13;25.50;;;23.70;;
3211;SDS011;1618;47.056;15.472;2023-07-16T07:15:42;25.43;;;23.63;;
3211;SDS011;1618;47.056;15.472;2023-07-16T07:18:09;26.60;;;24.60;;
3211;SDS011;1618;47.056;15.472;2023-07-16T07:20:37;26.80;;;24.70;;
3211;SDS011;1618;47.056;15.472;2023-07-16T07:23:04;27.17;;;24.97;;
3211;SDS011;1618;47.056;15.472;2023-07-16T07:25:31;27.40;;;25.20;;
3211;SDS011;1618;47.056;15.472;2023-07-16T07:27:59;27.50;;;25.30;;
3211;SDS011;1618;47.056;15.472;2023-07-16T07:30:26;28.43;;;26.23;;
3211;SDS011;1618;47.056;15.472;2023-07-16T07:32:55;28.70;;;26.50;;
3211;SDS011;1618;47.056;15.472;2023-07-16T07:35:22;29.70;;;27.30;;
3211;SDS011;1618;47.056;15.472;2023-07-16T07:37:50;31.27;;;28.77;;
3211;SDS011;1618;47.056;15.472;2023-07-16T07:40:17;32.40;;;29.80;;
3211;SDS011;1618;47.056;15.472;2023-07-16T07:42:44;31.27;;;28.77;;
3211;SDS011;1618;47.056;15.472;2023-07-16T07:45:11;30.60;;;28.10;;
3211;SDS011;1618;47.056;15.472;2023-07-16T07:47:39;31.07;;;28.57;;
3211;SDS011;1618;47.056;15.472;2023-07-16T07:50:08;31.10;;;28.60;;
3211;SDS011;1618;47.056;15.472;2023-07-16T07:52:35;32.33;;;29.73;;
3211;SDS011;1618;47.056;15.472;2023-07-16T07:55:03;31.63;;;29.03;;
3211;SDS011;1618;47.056;15.472;2023-07-16T07:57:30;33.30;;;30.70;;
3211;SDS011;1618;47.056;15.472;2023-07-16T07:59:57;32.67;;;29.97;;
3211;SDS011;1618;47.056;15.472;2023-07-16T08:02:24;32.50;;;29.80;;
3211;SDS011;1618;47.056;15.472;2023-07-16T08:04:52;32.20;;;29.50;;
3211;SDS011;1618;47.056;15.472;2023-07-16T08:07:21;32.67;;;29.97;;
3211;SDS011;1618;47.056;15.472;2023-07-16T08:09:48;33.37;;;30.57;;
3211;SDS011;1618;47.056;15.472;2023-07-16T08:12:15;32.90;;;30.20;;
3211;SDS011;1618;47.056;15.472;2023-07-16T08:14:43;32.80;;;30.10;;
3211;SDS011;1618;47.056;15.472;2023-07-16T08:17:10;32.50;;;29.80;;
3211;SDS011;1618;47.056;15.472;2023-07-16T08:19:38;32.70;;;30.00;;
3211;SDS011;1618;47.056;15.472;2023-07-16T08:22:06;32.00;;;29.30;;
3211;SDS011;1618;47.056;15.472;2023-07-16T08:24:35;33.00;;;30.20;;
3211;SDS011;1618;47.056;15.472;2023-07-16T08:27:03;32.83;;;30.03;;
3211;SDS011;1618;47.056;15.472;2023-07-16T08:29:30;33.27;;;30.47;;
3211;SDS011;1618;47.056;15.472;2023-07-16T08:31:58;33.50;;;30.70;;
3211;SDS011;1618;47.056;15.472;2023-07-16T08:34:25;32.90;;;30.10;;
3211;SDS011;1618;47.056;15.472;2023-07-16T08:36:52;33.97;;;31.27;;
3211;SDS011;1618;47.056;15.472;2023-07-16T08:39:19;32.00;;;29.30;;
3211;SDS011;1618;47.056;15.472;2023-07-16T08:41:49;31.70;;;29.00;;
3211;SDS011;1618;47.056;15.472;2023-07-16T08:44:16;28.83;;;26.23;;
3211;SDS011;1618;47.056;15.472;2023-07-16T08:46:43;30.05;;;27.35;;
3211;SDS011;1618;47.056;15.472;2023-07-16T08:49:11;31.67;;;28.88;;
3211;SDS011;1618;47.056;15.472;2023-07-16T08:51:39;31.70;;;28.90;;
3211;SDS011;1618;47.056;15.472;2023-07-16T08:54:06;31.10;;;28.40;;
3211;SDS011;1618;47.056;15.472;2023-07-16T08:56:34;32.57;;;29.77;;
3211;SDS011;1618;47.056;15.472;2023-07-16T08:59:03;31.33;;;28.70;;
3211;SDS011;1618;47.056;15.472;2023-07-16T09:01:30;32.50;;;29.80;;
3211;SDS011;1618;47.056;15.472;2023-07-16T09:03:57;32.50;;;29.80;;
3211;SDS011;1618;47.056;15.472;2023-07-16T09:06:25;32.70;;;30.00;;
3211;SDS011;1618;47.056;15.472;2023-07-16T09:08:52;33.00;;;30.30;;
3211;SDS011;1618;47.056;15.472;2023-07-16T09:11:20;33.00;;;30.20;;
3211;SDS011;1618;47.056;15.472;2023-07-16T09:14:02;32.70;;;29.90;;
3211;SDS011;1618;47.056;15.472;2023-07-16T09:16:32;31.40;;;28.60;;
3211;SDS011;1618;47.056;15.472;2023-07-16T09:19:05;31.80;;;29.00;;
3211;SDS011;1618;47.056;15.472;2023-07-16T09:21:32;31.90;;;29.10;;
3211;SDS011;1618;47.056;15.472;2023-07-16T09:24:05;32.50;;;29.70;;
3211;SDS011;1618;47.056;15.472;2023-07-16T09:26:32;32.90;;;30.10;;
3211;SDS011;1618;47.056;15.472;2023-07-16T09:28:59;33.20;;;30.40;;
3211;SDS011;1618;47.056;15.472;2023-07-16T09:31:28;31.50;;;28.70;;
3211;SDS011;1618;47.056;15.472;2023-07-16T09:33:56;31.80;;;29.00;;
3211;SDS011;1618;47.056;15.472;2023-07-16T09:36:24;32.50;;;29.60;;
3211;SDS011;1618;47.056;15.472;2023-07-16T09:38:52;31.70;;;28.90;;
3211;SDS011;1618;47.056;15.472;2023-07-16T09:41:20;32.50;;;29.70;;
3211;SDS011;1618;47.056;15.472;2023-07-16T09:43:47;34.53;;;31.63;;
3211;SDS011;1618;47.056;15.472;2023-07-16T09:46:15;35.00;;;32.10;;
3211;SDS011;1618;47.056;15.472;2023-07-16T09:48:43;32.53;;;29.73;;
3211;SDS011;1618;47.056;15.472;2023-07-16T09:51:11;33.50;;;30.60;;
3211;SDS011;1618;47.056;15.472;2023-07-16T09:53:38;33.70;;;30.80;;
3211;SDS011;1618;47.056;15.472;2023-07-16T09:56:08;32.30;;;29.50;;
3211;SDS011;1618;47.056;15.472;2023-07-16T09:58:35;34.03;;;31.23;;
3211;SDS011;1618;47.056;15.472;2023-07-16T10:01:02;33.60;;;30.90;;
3211;SDS011;1618;47.056;15.472;2023-07-16T10:03:30;33.93;;;31.03;;
3211;SDS011;1618;47.056;15.472;2023-07-16T10:06:06;34.70;;;31.80;;
3211;SDS011;1618;47.056;15.472;2023-07-16T10:08:34;34.00;;;31.10;;
3211;SDS011;1618;47.056;15.472;2023-07-16T10:11:01;34.37;;;31.47;;
3211;SDS011;1618;47.056;15.472;2023-07-16T10:13:29;35.20;;;32.30;;
3211;SDS011;1618;47.056;15.472;2023-07-16T10:15:56;35.80;;;32.90;;
3211;SDS011;1618;47.056;15.472;2023-07-16T10:18:25;33.77;;;30.87;;
3211;SDS011;1618;47.056;15.472;2023-07-16T10:20:59;33.70;;;30.80;;
3211;SDS011;1618;47.056;15.472;2023-07-16T10:23:35;32.60;;;29.80;;
3211;SDS011;1618;47.056;15.472;2023-07-16T10:26:04;33.20;;;30.30;;
3211;SDS011;1618;47.056;15.472;2023-07-16T10:28:32;34.70;;;31.80;;
3211;SDS011;1618;47.056;15.472;2023-07-16T10:30:59;33.87;;;30.97;;
3211;SDS011;1618;47.056;15.472;2023-07-16T10:33:26;32.57;;;29.77;;
3211;SDS011;1618;47.056;15.472;2023-07-16T10:35:56;31.70;;;28.80;;
3211;SDS011;1618;47.056;15.472;2023-07-16T10:38:24;35.47;;;32.57;;
3211;SDS011;1618;47.056;15.472;2023-07-16T10:40:52;32.57;;;29.77;;
3211;SDS011;1618;47.056;15.472;2023-07-16T10:43:20;33.30;;;30.40;;
3211;SDS011;1618;47.056;15.472;2023-07-16T10:45:47;33.90;;;31.00;;
3211;SDS011;1618;47.056;15.472;2023-07-16T10:48:14;34.30;;;31.40;;
3211;SDS011;1618;47.056;15.472;2023-07-16T10:50:42;34.27;;;31.27;;
3211;SDS011;1618;47.056;15.472;2023-07-16T10:53:10;35.80;;;32.80;;
3211;SDS011;1618;47.056;15.472;2023-07-16T10:55:38;34.93;;;31.93;;
3211;SDS011;1618;47.056;15.472;2023-07-16T10:58:06;36.23;;;33.23;;
3211;SDS011;1618;47.056;15.472;2023-07-16T11:00:36;35.70;;;32.60;;
3211;SDS011;1618;47.056;15.472;2023-07-16T11:03:04;34.50;;;31.50;;
3211;SDS011;1618;47.056;15.472;2023-07-16T11:05:31;35.07;;;32.07;;
3211;SDS011;1618;47.056;15.472;2023-07-16T11:07:58;34.40;;;31.50;;
3211;SDS011;1618;47.056;15.472;2023-07-16T11:10:27;34.20;;;31.40;;
3211;SDS011;1618;47.056;15.472;2023-07-16T11:12:55;34.93;;;32.03;;
3211;SDS011;1618;47.056;15.472;2023-07-16T11:15:31;35.23;;;32.23;;
3211;SDS011;1618;47.056;15.472;2023-07-16T11:17:59;35.43;;;32.40;;
3211;SDS011;1618;47.056;15.472;2023-07-16T11:20:26;34.80;;;31.80;;
3211;SDS011;1618;47.056;15.472;2023-07-16T11:22:57;35.80;;;32.80;;
3211;SDS011;1618;47.056;15.472;2023-07-16T11:25:25;37.03;;;34.00;;
3211;SDS011;1618;47.056;15.472;2023-07-16T11:27:53;37.50;;;34.40;;
3211;SDS011;1618;47.056;15.472;2023-07-16T11:30:22;37.63;;;34.53;;
3211;SDS011;1618;47.056;15.472;2023-07-16T11:32:51;36.43;;;33.37;;
3211;SDS011;1618;47.056;15.472;2023-07-16T11:35:19;35.33;;;32.23;;
3211;SDS011;1618;47.056;15.472;2023-07-16T11:37:47;35.77;;;32.67;;
3211;SDS011;1618;47.056;15.472;2023-07-16T11:40:16;34.47;;;31.47;;
3211;SDS011;1618;47.056;15.472;2023-07-16T11:42:43;35.73;;;32.67;;
3211;SDS011;1618;47.056;15.472;2023-07-16T11:45:17;37.50;;;34.40;;
3211;SDS011;1618;47.056;15.472;2023-07-16T11:47:44;36.00;;;33.00;;
3211;SDS011;1618;47.056;15.472;2023-07-16T11:50:13;36.37;;;33.27;;
3211;SDS011;1618;47.056;15.472;2023-07-16T11:52:40;35.40;;;32.30;;
3211;SDS011;1618;47.056;15.472;2023-07-16T11:55:08;35.87;;;32.77;;
3211;SDS011;1618;47.056;15.472;2023-07-16T11:57:37;35.60;;;32.50;;
3211;SDS011;1618;47.056;15.472;2023-07-16T12:00:05;36.33;;;33.23;;
3211;SDS011;1618;47.056;15.472;2023-07-16T12:02:32;36.60;;;33.50;;
3211;SDS011;1618;47.056;15.472;2023-07-16T12:05:01;35.00;;;32.00;;
3211;SDS011;1618;47.056;15.472;2023-07-16T12:07:36;35.03;;;32.13;;
3211;SDS011;1618;47.056;15.472;2023-07-16T12:10:04;35.13;;;32.03;;
3211;SDS011;1618;47.056;15.472;2023-07-16T12:12:31;34.00;;;30.97;;
3211;SDS011;1618;47.056;15.472;2023-07-16T12:15:03;33.23;;;30.23;;
3211;SDS011;1618;47.056;15.472;2023-07-16T12:17:30;32.93;;;29.93;;
3211;SDS011;1618;47.056;15.472;2023-07-16T12:19:57;35.10;;;32.00;;
3211;SDS011;1618;47.056;15.472;2023-07-16T12:22:24;33.67;;;30.87;;
3211;SDS011;1618;47.056;15.472;2023-07-16T12:24:53;35.80;;;32.80;;
3211;SDS011;1618;47.056;15.472;2023-07-16T12:27:20;33.80;;;30.80;;
3211;SDS011;1618;47.056;15.472;2023-07-16T12:29:48;34.03;;;30.93;;
3211;SDS011;1618;47.056;15.472;2023-07-16T12:32:17;37.17;;;34.17;;
3211;SDS011;1618;47.056;15.472;2023-07-16T12:34:45;35.60;;;32.60;;
3211;SDS011;1618;47.056;15.472;2023-07-16T12:37:12;34.27;;;31.27;;
3211;SDS011;1618;47.056;15.472;2023-07-16T12:39:39;33.50;;;30.60;;
3211;SDS011;1618;47.056;15.472;2023-07-16T12:42:08;34.73;;;31.63;;
3211;SDS011;1618;47.056;15.472;2023-07-16T12:44:35;34.13;;;31.03;;
3211;SDS011;1618;47.056;15.472;2023-07-16T12:47:03;35.80;;;32.80;;
3211;SDS011;1618;47.056;15.472;2023-07-16T12:49:33;35.95;;;32.95;;
3211;SDS011;1618;47.056;15.472;2023-07-16T12:52:01;34.20;;;31.20;;
3211;SDS011;1618;47.056;15.472;2023-07-16T12:54:28;36.00;;;33.10;;
3211;SDS011;1618;47.056;15.472;2023-07-16T12:56:56;34.72;;;31.63;;
3211;SDS011;1618;47.056;15.472;2023-07-16T12:59:25;36.38;;;33.28;;
3211;SDS011;1618;47.056;15.472;2023-07-16T13:01:52;34.75;;;31.73;;
3211;SDS011;1618;47.056;15.472;2023-07-16T13:04:19;35.27;;;32.17;;
3211;SDS011;1618;47.056;15.472;2023-07-16T13:06:46;34.53;;;31.43;;
3211;SDS011;1618;47.056;15.472;2023-07-16T13:09:14;35.77;;;32.57;;
3211;SDS011;1618;47.056;15.472;2023-07-16T13:11:42;35.70;;;32.70;;
3211;SDS011;1618;47.056;15.472;2023-07-16T13:14:09;35.60;;;32.50;;
3211;SDS011;1618;47.056;15.472;2023-07-16T13:16:38;35.60;;;32.50;;
3211;SDS011;1618;47.056;15.472;2023-07-16T13:19:05;36.27;;;33.07;;
3211;SDS011;1618;47.056;15.472;2023-07-16T13:21:32;34.63;;;31.53;;
3211;SDS011;1618;47.056;15.472;2023-07-16T13:23:59;35.97;;;33.03;;
3211;SDS011;1618;47.056;15.472;2023-07-16T13:26:27;34.43;;;31.33;;
3211;SDS011;1618;47.056;15.472;2023-07-16T13:28:54;37.23;;;34.13;;
3211;SDS011;1618;47.056;15.472;2023-07-16T13:31:21;35.43;;;32.23;;
3211;SDS011;1618;47.056;15.472;2023-07-16T13:33:50;34.73;;;31.63;;
3211;SDS011;1618;47.056;15.472;2023-07-16T13:36:17;33.87;;;30.77;;
3211;SDS011;1618;47.056;15.472;2023-07-16T13:38:44;36.10;;;32.90;;
3211;SDS011;1618;47.056;15.472;2023-07-16T13:41:11;34.23;;;31.23;;
3211;SDS011;1618;47.056;15.472;2023-07-16T13:43:38;35.60;;;32.80;;
3211;SDS011;1618;47.056;15.472;2023-07-16T13:46:06;34.30;;;31.40;;
3211;SDS011;1618;47.056;15.472;2023-07-16T13:48:33;34.80;;;31.70;;
3211;SDS011;1618;47.056;15.472;2023-07-16T13:51:01;36.70;;;33.50;;
3211;SDS011;1618;47.056;15.472;2023-07-16T13:53:29;34.50;;;31.40;;
3211;SDS011;1618;47.056;15.472;2023-07-16T13:55:57;35.07;;;31.97;;
3211;SDS011;1618;47.056;15.472;2023-07-16T13:58:24;34.47;;;31.37;;
3211;SDS011;1618;47.056;15.472;2023-07-16T14:00:51;35.43;;;32.27;;
3211;SDS011;1618;47.056;15.472;2023-07-16T14:03:19;35.17;;;32.17;;
3211;SDS011;1618;47.056;15.472;2023-07-16T14:05:46;34.00;;;31.10;;
3211;SDS011;1618;47.056;15.472;2023-07-16T14:08:15;34.90;;;32.00;;
3211;SDS011;1618;47.056;15.472;2023-07-16T14:10:42;34.13;;;31.33;;
3211;SDS011;1618;47.056;15.472;2023-07-16T14:13:09;34.33;;;31.53;;
3211;SDS011;1618;47.056;15.472;2023-07-16T14:15:37;32.87;;;30.17;;
3211;SDS011;1618;47.056;15.472;2023-07-16T14:18:05;33.67;;;30.97;;
3211;SDS011;1618;47.056;15.472;2023-07-16T14:20:32;33.23;;;30.53;;
3211;SDS011;1618;47.056;15.472;2023-07-16T14:22:59;33.90;;;31.10;;
3211;SDS011;1618;47.056;15.472;2023-07-16T14:25:28;33.70;;;30.90;;
3211;SDS011;1618;47.056;15.472;2023-07-16T14:27:55;35.40;;;32.50;;
3211;SDS011;1618;47.056;15.472;2023-07-16T14:30:22;33.30;;;30.60;;
3211;SDS011;1618;47.056;15.472;2023-07-16T14:32:49;33.90;;;31.10;;
3211;SDS011;1618;47.056;15.472;2023-07-16T14:35:17;33.30;;;30.60;;
3211;SDS011;1618;47.056;15.472;2023-07-16T14:37:44;34.00;;;31.20;;